sensor_id;sensor_type;location;lat;lon;timestamp;P1;durP1;ratioP1;P2;durP2;ratioP2
71646;SDS011;59706;45.634;11.704;2023-04-22T00:01:07;11.00;;;6.20;;
71646;SDS011;59706;45.634;11.704;2023-04-22T00:03:34;10.60;;;5.70;;
71646;SDS011;59706;45.634;11.704;2023-04-22T00:06:03;12.50;;;5.80;;
71646;SDS011;59706;45.634;11.704;2023-04-22T00:08:30;11.20;;;5.80;;
71646;SDS011;59706;45.634;11.704;2023-04-22T00:10:58;9.90;;;5.30;;
71646;SDS011;59706;45.634;11.704;2023-04-22T00:13:25;9.40;;;5.30;;
71646;SDS011;59706;45.634;11.704;2023-04-22T00:15:53;12.30;;;5.30;;
71646;SDS011;59706;45.634;11.704;2023-04-22T00:18:20;10.20;;;4.80;;
71646;SDS011;59706;45.634;11.704;2023-04-22T00:20:47;10.90;;;5.30;;
71646;SDS011;59706;45.634;11.704;2023-04-22T00:23:15;9.90;;;5.40;;
71646;SDS011;59706;45.634;11.704;2023-04-22T00:25:43;10.20;;;5.00;;
71646;SDS011;59706;45.634;11.704;2023-04-22T00:28:10;10.10;;;5.40;;
71646;SDS011;59706;45.634;11.704;2023-04-22T00:30:38;9.60;;;5.30;;
71646;SDS011;59706;45.634;11.704;2023-04-22T00:33:05;9.00;;;5.00;;
71646;SDS011;59706;45.634;11.704;2023-04-22T00:35:32;8.80;;;4.70;;
71646;SDS011;59706;45.634;11.704;2023-04-22T00:37:59;8.20;;;4.70;;
71646;SDS011;59706;45.634;11.704;2023-04-22T00:40:26;10.60;;;5.00;;
71646;SDS011;59706;45.634;11.704;2023-04-22T00:42:54;8.90;;;4.70;;
71646;SDS011;59706;45.634;11.704;2023-04-22T00:45:21;9.90;;;4.90;;
71646;SDS011;59706;45.634;11.704;2023-04-22T00:47:48;10.50;;;5.10;;
71646;SDS011;59706;45.634;11.704;2023-04-22T00:50:16;10.60;;;6.00;;
71646;SDS011;59706;45.634;11.704;2023-04-22T00:52:43;9.10;;;5.20;;
71646;SDS011;59706;45.634;11.704;2023-04-22T00:55:10;11.40;;;5.00;;
71646;SDS011;59706;45.634;11.704;2023-04-22T00:57:38;11.10;;;4.90;;
71646;SDS011;59706;45.634;11.704;2023-04-22T01:00:08;10.90;;;5.20;;
71646;SDS011;59706;45.634;11.704;2023-04-22T01:02:36;9.30;;;4.80;;
71646;SDS011;59706;45.634;11.704;2023-04-22T01:05:06;9.10;;;4.90;;
71646;SDS011;59706;45.634;11.704;2023-04-22T01:07:35;8.90;;;4.60;;
71646;SDS011;59706;45.634;11.704;2023-04-22T01:10:03;9.30;;;4.90;;
71646;SDS011;59706;45.634;11.704;2023-04-22T01:12:31;9.00;;;4.40;;
71646;SDS011;59706;45.634;11.704;2023-04-22T01:14:58;8.80;;;4.30;;
71646;SDS011;59706;45.634;11.704;2023-04-22T01:17:26;10.10;;;4.50;;
71646;SDS011;59706;45.634;11.704;2023-04-22T01:19:54;9.90;;;4.30;;
71646;SDS011;59706;45.634;11.704;2023-04-22T01:22:22;8.50;;;4.30;;
71646;SDS011;59706;45.634;11.704;2023-04-22T01:24:52;9.10;;;4.40;;
71646;SDS011;59706;45.634;11.704;2023-04-22T01:27:19;10.80;;;4.20;;
71646;SDS011;59706;45.634;11.704;2023-04-22T01:29:47;7.60;;;4.00;;
71646;SDS011;59706;45.634;11.704;2023-04-22T01:32:13;7.60;;;3.90;;
71646;SDS011;59706;45.634;11.704;2023-04-22T01:34:41;7.70;;;3.70;;
71646;SDS011;59706;45.634;11.704;2023-04-22T01:37:08;9.10;;;4.60;;
71646;SDS011;59706;45.634;11.704;2023-04-22T01:39:36;8.10;;;3.50;;
71646;SDS011;59706;45.634;11.704;2023-04-22T01:42:04;8.00;;;3.80;;
71646;SDS011;59706;45.634;11.704;2023-04-22T01:44:32;8.60;;;3.80;;
71646;SDS011;59706;45.634;11.704;2023-04-22T01:46:59;9.90;;;4.60;;
71646;SDS011;59706;45.634;11.704;2023-04-22T01:49:27;11.50;;;5.20;;
71646;SDS011;59706;45.634;11.704;2023-04-22T01:51:54;13.00;;;6.40;;
71646;SDS011;59706;45.634;11.704;2023-04-22T01:54:23;11.20;;;5.70;;
71646;SDS011;59706;45.634;11.704;2023-04-22T01:56:52;14.00;;;6.00;;
71646;SDS011;59706;45.634;11.704;2023-04-22T01:59:20;12.30;;;5.90;;
71646;SDS011;59706;45.634;11.704;2023-04-22T02:01:47;12.50;;;6.20;;
71646;SDS011;59706;45.634;11.704;2023-04-22T02:04:15;9.80;;;5.00;;
71646;SDS011;59706;45.634;11.704;2023-04-22T02:06:42;9.00;;;4.90;;
71646;SDS011;59706;45.634;11.704;2023-04-22T02:09:09;7.90;;;4.40;;
71646;SDS011;59706;45.634;11.704;2023-04-22T02:11:37;20.70;;;7.60;;
71646;SDS011;59706;45.634;11.704;2023-04-22T02:14:04;17.40;;;6.90;;
71646;SDS011;59706;45.634;11.704;2023-04-22T02:16:32;24.00;;;9.40;;
71646;SDS011;59706;45.634;11.704;2023-04-22T02:18:59;25.80;;;8.50;;
71646;SDS011;59706;45.634;11.704;2023-04-22T02:21:30;32.60;;;10.80;;
71646;SDS011;59706;45.634;11.704;2023-04-22T02:23:57;40.60;;;13.20;;
71646;SDS011;59706;45.634;11.704;2023-04-22T02:26:24;25.80;;;9.20;;
71646;SDS011;59706;45.634;11.704;2023-04-22T02:28:52;21.70;;;7.20;;
71646;SDS011;59706;45.634;11.704;2023-04-22T02:31:20;18.20;;;7.30;;
71646;SDS011;59706;45.634;11.704;2023-04-22T02:33:47;12.90;;;6.00;;
71646;SDS011;59706;45.634;11.704;2023-04-22T02:36:14;14.00;;;6.30;;
71646;SDS011;59706;45.634;11.704;2023-04-22T02:38:42;12.70;;;5.80;;
71646;SDS011;59706;45.634;11.704;2023-04-22T02:41:09;13.40;;;5.80;;
71646;SDS011;59706;45.634;11.704;2023-04-22T02:43:37;10.90;;;5.70;;
71646;SDS011;59706;45.634;11.704;2023-04-22T02:46:06;11.10;;;5.10;;
71646;SDS011;59706;45.634;11.704;2023-04-22T02:48:37;10.00;;;4.70;;
71646;SDS011;59706;45.634;11.704;2023-04-22T02:51:06;9.90;;;4.70;;
71646;SDS011;59706;45.634;11.704;2023-04-22T02:53:34;8.20;;;4.30;;
71646;SDS011;59706;45.634;11.704;2023-04-22T02:56:01;9.60;;;4.60;;
71646;SDS011;59706;45.634;11.704;2023-04-22T02:58:29;9.10;;;4.20;;
71646;SDS011;59706;45.634;11.704;2023-04-22T03:00:56;9.00;;;5.30;;
71646;SDS011;59706;45.634;11.704;2023-04-22T03:03:23;10.30;;;4.30;;
71646;SDS011;59706;45.634;11.704;2023-04-22T03:05:51;10.00;;;4.70;;
71646;SDS011;59706;45.634;11.704;2023-04-22T03:08:19;8.70;;;3.80;;
71646;SDS011;59706;45.634;11.704;2023-04-22T03:10:46;8.60;;;4.40;;
71646;SDS011;59706;45.634;11.704;2023-04-22T03:13:13;9.30;;;5.00;;
71646;SDS011;59706;45.634;11.704;2023-04-22T03:15:41;9.60;;;5.30;;
71646;SDS011;59706;45.634;11.704;2023-04-22T03:18:09;9.30;;;5.00;;
71646;SDS011;59706;45.634;11.704;2023-04-22T03:20:37;12.10;;;5.70;;
71646;SDS011;59706;45.634;11.704;2023-04-22T03:23:04;11.20;;;5.80;;
71646;SDS011;59706;45.634;11.704;2023-04-22T03:25:32;11.50;;;6.40;;
71646;SDS011;59706;45.634;11.704;2023-04-22T03:28:01;11.30;;;6.50;;
71646;SDS011;59706;45.634;11.704;2023-04-22T03:30:28;10.20;;;5.70;;
71646;SDS011;59706;45.634;11.704;2023-04-22T03:32:56;10.20;;;5.50;;
71646;SDS011;59706;45.634;11.704;2023-04-22T03:35:23;10.00;;;5.00;;
71646;SDS011;59706;45.634;11.704;2023-04-22T03:37:51;9.10;;;4.70;;
71646;SDS011;59706;45.634;11.704;2023-04-22T03:40:19;9.10;;;4.80;;
71646;SDS011;59706;45.634;11.704;2023-04-22T03:42:47;9.60;;;5.00;;
71646;SDS011;59706;45.634;11.704;2023-04-22T03:45:14;8.80;;;4.90;;
71646;SDS011;59706;45.634;11.704;2023-04-22T03:47:42;9.10;;;4.60;;
71646;SDS011;59706;45.634;11.704;2023-04-22T03:50:09;8.50;;;4.50;;
71646;SDS011;59706;45.634;11.704;2023-04-22T03:52:37;10.90;;;4.80;;
71646;SDS011;59706;45.634;11.704;2023-04-22T03:55:06;9.10;;;4.70;;
71646;SDS011;59706;45.634;11.704;2023-04-22T03:57:35;9.50;;;4.90;;
71646;SDS011;59706;45.634;11.704;2023-04-22T04:00:05;9.70;;;5.00;;
71646;SDS011;59706;45.634;11.704;2023-04-22T04:02:35;9.00;;;4.90;;
71646;SDS011;59706;45.634;11.704;2023-04-22T04:05:02;10.00;;;4.60;;
71646;SDS011;59706;45.634;11.704;2023-04-22T04:07:32;9.10;;;4.70;;
71646;SDS011;59706;45.634;11.704;2023-04-22T04:09:59;10.10;;;4.40;;
71646;SDS011;59706;45.634;11.704;2023-04-22T04:12:27;8.50;;;4.50;;
71646;SDS011;59706;45.634;11.704;2023-04-22T04:14:55;10.00;;;5.30;;
71646;SDS011;59706;45.634;11.704;2023-04-22T04:17:22;10.40;;;4.90;;
71646;SDS011;59706;45.634;11.704;2023-04-22T04:19:53;9.40;;;4.60;;
71646;SDS011;59706;45.634;11.704;2023-04-22T04:22:20;9.10;;;4.60;;
71646;SDS011;59706;45.634;11.704;2023-04-22T04:24:48;10.20;;;5.00;;
71646;SDS011;59706;45.634;11.704;2023-04-22T04:27:17;11.20;;;5.30;;
71646;SDS011;59706;45.634;11.704;2023-04-22T04:29:44;8.60;;;4.60;;
71646;SDS011;59706;45.634;11.704;2023-04-22T04:32:12;9.00;;;4.00;;
71646;SDS011;59706;45.634;11.704;2023-04-22T04:34:39;10.60;;;4.60;;
71646;SDS011;59706;45.634;11.704;2023-04-22T04:37:07;10.00;;;5.30;;
71646;SDS011;59706;45.634;11.704;2023-04-22T04:39:34;9.90;;;4.50;;
71646;SDS011;59706;45.634;11.704;2023-04-22T04:42:02;10.40;;;5.00;;
71646;SDS011;59706;45.634;11.704;2023-04-22T04:44:29;10.50;;;5.20;;
71646;SDS011;59706;45.634;11.704;2023-04-22T04:46:57;10.80;;;5.10;;
71646;SDS011;59706;45.634;11.704;2023-04-22T04:49:25;9.10;;;4.80;;
71646;SDS011;59706;45.634;11.704;2023-04-22T04:51:56;10.60;;;4.80;;
71646;SDS011;59706;45.634;11.704;2023-04-22T04:54:23;11.10;;;5.70;;
71646;SDS011;59706;45.634;11.704;2023-04-22T04:56:50;10.80;;;5.40;;
71646;SDS011;59706;45.634;11.704;2023-04-22T04:59:18;11.70;;;5.40;;
71646;SDS011;59706;45.634;11.704;2023-04-22T05:01:46;9.60;;;5.40;;
71646;SDS011;59706;45.634;11.704;2023-04-22T05:04:13;11.30;;;5.50;;
71646;SDS011;59706;45.634;11.704;2023-04-22T05:06:41;9.20;;;5.00;;
71646;SDS011;59706;45.634;11.704;2023-04-22T05:09:08;9.20;;;4.80;;
71646;SDS011;59706;45.634;11.704;2023-04-22T05:11:35;8.70;;;4.70;;
71646;SDS011;59706;45.634;11.704;2023-04-22T05:14:02;9.10;;;4.80;;
71646;SDS011;59706;45.634;11.704;2023-04-22T05:16:30;9.70;;;5.00;;
71646;SDS011;59706;45.634;11.704;2023-04-22T05:18:57;10.00;;;4.90;;
71646;SDS011;59706;45.634;11.704;2023-04-22T05:21:24;10.00;;;5.40;;
71646;SDS011;59706;45.634;11.704;2023-04-22T05:23:51;13.10;;;6.00;;
71646;SDS011;59706;45.634;11.704;2023-04-22T05:26:19;12.10;;;5.70;;
71646;SDS011;59706;45.634;11.704;2023-04-22T05:28:46;13.10;;;7.50;;
71646;SDS011;59706;45.634;11.704;2023-04-22T05:31:13;11.80;;;6.50;;
71646;SDS011;59706;45.634;11.704;2023-04-22T05:33:41;11.20;;;6.30;;
71646;SDS011;59706;45.634;11.704;2023-04-22T05:36:08;9.80;;;5.50;;
71646;SDS011;59706;45.634;11.704;2023-04-22T05:38:36;10.50;;;5.20;;
71646;SDS011;59706;45.634;11.704;2023-04-22T05:41:04;9.90;;;5.20;;
71646;SDS011;59706;45.634;11.704;2023-04-22T05:43:34;10.50;;;5.10;;
71646;SDS011;59706;45.634;11.704;2023-04-22T05:46:01;9.60;;;4.90;;
71646;SDS011;59706;45.634;11.704;2023-04-22T05:48:28;10.50;;;6.20;;
71646;SDS011;59706;45.634;11.704;2023-04-22T05:50:56;9.10;;;5.10;;
71646;SDS011;59706;45.634;11.704;2023-04-22T05:53:23;9.30;;;5.50;;
71646;SDS011;59706;45.634;11.704;2023-04-22T05:55:50;11.30;;;5.50;;
71646;SDS011;59706;45.634;11.704;2023-04-22T05:58:18;11.10;;;6.00;;
71646;SDS011;59706;45.634;11.704;2023-04-22T06:00:46;9.70;;;5.30;;
71646;SDS011;59706;45.634;11.704;2023-04-22T06:03:13;10.00;;;5.70;;
71646;SDS011;59706;45.634;11.704;2023-04-22T06:05:41;12.30;;;6.50;;
71646;SDS011;59706;45.634;11.704;2023-04-22T06:08:09;20.40;;;10.10;;
71646;SDS011;59706;45.634;11.704;2023-04-22T06:10:36;12.70;;;6.60;;
71646;SDS011;59706;45.634;11.704;2023-04-22T06:13:03;10.20;;;5.80;;
71646;SDS011;59706;45.634;11.704;2023-04-22T06:15:33;10.10;;;5.30;;
71646;SDS011;59706;45.634;11.704;2023-04-22T06:17:59;10.00;;;5.30;;
71646;SDS011;59706;45.634;11.704;2023-04-22T06:20:27;9.60;;;5.40;;
71646;SDS011;59706;45.634;11.704;2023-04-22T06:22:57;10.80;;;5.10;;
71646;SDS011;59706;45.634;11.704;2023-04-22T06:25:24;9.40;;;5.00;;
71646;SDS011;59706;45.634;11.704;2023-04-22T06:27:52;8.50;;;4.90;;
71646;SDS011;59706;45.634;11.704;2023-04-22T06:30:19;10.70;;;5.50;;
71646;SDS011;59706;45.634;11.704;2023-04-22T06:32:47;9.90;;;5.60;;
71646;SDS011;59706;45.634;11.704;2023-04-22T06:35:15;10.80;;;5.30;;
71646;SDS011;59706;45.634;11.704;2023-04-22T06:37:43;9.50;;;5.30;;
71646;SDS011;59706;45.634;11.704;2023-04-22T06:40:12;9.50;;;5.80;;
71646;SDS011;59706;45.634;11.704;2023-04-22T06:42:39;13.50;;;6.90;;
71646;SDS011;59706;45.634;11.704;2023-04-22T06:45:08;10.60;;;5.40;;
71646;SDS011;59706;45.634;11.704;2023-04-22T06:47:38;10.20;;;5.30;;
71646;SDS011;59706;45.634;11.704;2023-04-22T06:50:10;8.80;;;4.90;;
71646;SDS011;59706;45.634;11.704;2023-04-22T06:52:37;12.50;;;5.50;;
71646;SDS011;59706;45.634;11.704;2023-04-22T06:55:05;11.00;;;5.40;;
71646;SDS011;59706;45.634;11.704;2023-04-22T06:57:34;10.30;;;5.30;;
71646;SDS011;59706;45.634;11.704;2023-04-22T07:00:03;11.50;;;5.50;;
71646;SDS011;59706;45.634;11.704;2023-04-22T07:02:33;9.70;;;5.40;;
71646;SDS011;59706;45.634;11.704;2023-04-22T07:05:00;9.90;;;5.90;;
71646;SDS011;59706;45.634;11.704;2023-04-22T07:07:28;10.10;;;6.10;;
71646;SDS011;59706;45.634;11.704;2023-04-22T07:09:55;12.80;;;5.70;;
71646;SDS011;59706;45.634;11.704;2023-04-22T07:12:23;12.10;;;5.40;;
71646;SDS011;59706;45.634;11.704;2023-04-22T07:14:53;14.70;;;6.10;;
71646;SDS011;59706;45.634;11.704;2023-04-22T07:17:20;11.60;;;6.10;;
71646;SDS011;59706;45.634;11.704;2023-04-22T07:19:48;11.70;;;5.10;;
71646;SDS011;59706;45.634;11.704;2023-04-22T07:22:15;9.80;;;4.80;;
71646;SDS011;59706;45.634;11.704;2023-04-22T07:24:43;9.20;;;4.60;;
71646;SDS011;59706;45.634;11.704;2023-04-22T07:27:10;9.40;;;4.40;;
71646;SDS011;59706;45.634;11.704;2023-04-22T07:29:37;9.30;;;5.00;;
71646;SDS011;59706;45.634;11.704;2023-04-22T07:32:05;9.80;;;5.00;;
71646;SDS011;59706;45.634;11.704;2023-04-22T07:34:32;9.40;;;4.40;;
71646;SDS011;59706;45.634;11.704;2023-04-22T07:36:59;10.10;;;5.30;;
71646;SDS011;59706;45.634;11.704;2023-04-22T07:39:27;9.00;;;4.80;;
71646;SDS011;59706;45.634;11.704;2023-04-22T07:41:54;10.00;;;4.80;;
71646;SDS011;59706;45.634;11.704;2023-04-22T07:44:22;11.30;;;5.90;;
71646;SDS011;59706;45.634;11.704;2023-04-22T07:46:49;11.00;;;5.60;;
71646;SDS011;59706;45.634;11.704;2023-04-22T07:49:16;12.10;;;5.90;;
71646;SDS011;59706;45.634;11.704;2023-04-22T07:51:44;12.40;;;6.40;;
71646;SDS011;59706;45.634;11.704;2023-04-22T07:54:11;12.50;;;5.90;;
71646;SDS011;59706;45.634;11.704;2023-04-22T07:56:39;10.00;;;5.80;;
71646;SDS011;59706;45.634;11.704;2023-04-22T07:59:05;10.70;;;5.90;;
71646;SDS011;59706;45.634;11.704;2023-04-22T08:01:33;10.50;;;6.10;;
71646;SDS011;59706;45.634;11.704;2023-04-22T08:04:00;10.10;;;5.50;;
71646;SDS011;59706;45.634;11.704;2023-04-22T08:06:28;10.10;;;5.70;;
71646;SDS011;59706;45.634;11.704;2023-04-22T08:08:55;13.70;;;7.20;;
71646;SDS011;59706;45.634;11.704;2023-04-22T08:11:23;11.80;;;5.90;;
71646;SDS011;59706;45.634;11.704;2023-04-22T08:13:50;12.10;;;7.00;;
71646;SDS011;59706;45.634;11.704;2023-04-22T08:16:17;11.70;;;6.80;;
71646;SDS011;59706;45.634;11.704;2023-04-22T08:18:44;12.50;;;6.20;;
71646;SDS011;59706;45.634;11.704;2023-04-22T08:21:12;11.30;;;6.60;;
71646;SDS011;59706;45.634;11.704;2023-04-22T08:23:39;12.80;;;6.70;;
71646;SDS011;59706;45.634;11.704;2023-04-22T08:26:06;13.80;;;7.60;;
71646;SDS011;59706;45.634;11.704;2023-04-22T08:28:35;12.00;;;7.10;;
71646;SDS011;59706;45.634;11.704;2023-04-22T08:31:02;12.80;;;7.70;;
71646;SDS011;59706;45.634;11.704;2023-04-22T08:33:30;14.60;;;8.10;;
71646;SDS011;59706;45.634;11.704;2023-04-22T08:35:58;13.40;;;7.30;;
71646;SDS011;59706;45.634;11.704;2023-04-22T08:38:25;16.60;;;8.30;;
71646;SDS011;59706;45.634;11.704;2023-04-22T08:40:55;13.50;;;6.90;;
71646;SDS011;59706;45.634;11.704;2023-04-22T08:43:25;14.40;;;8.20;;
71646;SDS011;59706;45.634;11.704;2023-04-22T08:45:52;13.40;;;7.90;;
71646;SDS011;59706;45.634;11.704;2023-04-22T08:48:20;12.40;;;7.50;;
71646;SDS011;59706;45.634;11.704;2023-04-22T08:50:51;13.00;;;8.00;;
71646;SDS011;59706;45.634;11.704;2023-04-22T08:53:40;13.30;;;7.90;;
71646;SDS011;59706;45.634;11.704;2023-04-22T08:56:09;12.40;;;7.60;;
71646;SDS011;59706;45.634;11.704;2023-04-22T08:58:57;12.00;;;7.80;;
71646;SDS011;59706;45.634;11.704;2023-04-22T09:01:26;15.50;;;8.30;;
71646;SDS011;59706;45.634;11.704;2023-04-22T09:03:57;11.40;;;6.40;;
71646;SDS011;59706;45.634;11.704;2023-04-22T09:06:24;13.30;;;6.90;;
71646;SDS011;59706;45.634;11.704;2023-04-22T09:08:52;12.00;;;7.00;;
71646;SDS011;59706;45.634;11.704;2023-04-22T09:11:19;12.60;;;7.40;;
71646;SDS011;59706;45.634;11.704;2023-04-22T09:13:46;12.40;;;7.10;;
71646;SDS011;59706;45.634;11.704;2023-04-22T09:16:13;10.30;;;5.70;;
71646;SDS011;59706;45.634;11.704;2023-04-22T09:18:41;10.20;;;5.70;;
71646;SDS011;59706;45.634;11.704;2023-04-22T09:21:10;11.30;;;6.90;;
71646;SDS011;59706;45.634;11.704;2023-04-22T09:24:02;12.00;;;6.40;;
71646;SDS011;59706;45.634;11.704;2023-04-22T09:26:32;11.60;;;6.40;;
71646;SDS011;59706;45.634;11.704;2023-04-22T09:28:59;11.20;;;6.40;;
71646;SDS011;59706;45.634;11.704;2023-04-22T09:31:27;12.60;;;7.80;;
71646;SDS011;59706;45.634;11.704;2023-04-22T09:33:55;11.80;;;7.30;;
71646;SDS011;59706;45.634;11.704;2023-04-22T09:36:27;13.70;;;7.90;;
71646;SDS011;59706;45.634;11.704;2023-04-22T09:39:00;13.60;;;7.90;;
71646;SDS011;59706;45.634;11.704;2023-04-22T09:41:36;12.80;;;7.40;;
71646;SDS011;59706;45.634;11.704;2023-04-22T09:44:21;12.50;;;7.40;;
71646;SDS011;59706;45.634;11.704;2023-04-22T09:46:48;15.30;;;9.10;;
71646;SDS011;59706;45.634;11.704;2023-04-22T09:49:16;14.50;;;8.90;;
71646;SDS011;59706;45.634;11.704;2023-04-22T09:51:44;14.00;;;8.50;;
71646;SDS011;59706;45.634;11.704;2023-04-22T09:54:11;14.00;;;8.20;;
71646;SDS011;59706;45.634;11.704;2023-04-22T09:57:17;14.60;;;9.10;;
71646;SDS011;59706;45.634;11.704;2023-04-22T09:59:43;16.30;;;9.30;;
71646;SDS011;59706;45.634;11.704;2023-04-22T10:02:10;15.50;;;10.20;;
71646;SDS011;59706;45.634;11.704;2023-04-22T10:04:37;14.90;;;8.70;;
71646;SDS011;59706;45.634;11.704;2023-04-22T10:07:04;13.70;;;8.20;;
71646;SDS011;59706;45.634;11.704;2023-04-22T10:09:32;16.10;;;10.00;;
71646;SDS011;59706;45.634;11.704;2023-04-22T10:12:00;15.60;;;8.80;;
71646;SDS011;59706;45.634;11.704;2023-04-22T10:14:27;16.20;;;10.90;;
71646;SDS011;59706;45.634;11.704;2023-04-22T10:17:01;16.20;;;10.20;;
71646;SDS011;59706;45.634;11.704;2023-04-22T10:19:30;18.20;;;11.90;;
71646;SDS011;59706;45.634;11.704;2023-04-22T10:22:01;15.80;;;9.90;;
71646;SDS011;59706;45.634;11.704;2023-04-22T10:24:34;15.00;;;9.40;;
71646;SDS011;59706;45.634;11.704;2023-04-22T10:27:04;14.90;;;9.20;;
71646;SDS011;59706;45.634;11.704;2023-04-22T10:30:00;15.90;;;10.00;;
71646;SDS011;59706;45.634;11.704;2023-04-22T10:32:27;15.40;;;9.70;;
71646;SDS011;59706;45.634;11.704;2023-04-22T10:35:14;17.10;;;9.80;;
71646;SDS011;59706;45.634;11.704;2023-04-22T10:37:41;15.90;;;9.20;;
71646;SDS011;59706;45.634;11.704;2023-04-22T10:40:14;16.40;;;10.60;;
71646;SDS011;59706;45.634;11.704;2023-04-22T10:42:45;15.20;;;9.80;;
71646;SDS011;59706;45.634;11.704;2023-04-22T10:45:15;18.80;;;10.40;;
71646;SDS011;59706;45.634;11.704;2023-04-22T10:47:43;16.60;;;9.60;;
71646;SDS011;59706;45.634;11.704;2023-04-22T10:50:24;16.90;;;10.90;;
71646;SDS011;59706;45.634;11.704;2023-04-22T10:52:57;16.40;;;9.70;;
71646;SDS011;59706;45.634;11.704;2023-04-22T10:55:48;16.50;;;9.90;;
71646;SDS011;59706;45.634;11.704;2023-04-22T10:58:20;16.50;;;10.00;;
71646;SDS011;59706;45.634;11.704;2023-04-22T11:00:48;15.80;;;10.30;;
71646;SDS011;59706;45.634;11.704;2023-04-22T11:03:28;17.70;;;10.70;;
71646;SDS011;59706;45.634;11.704;2023-04-22T11:06:19;16.30;;;10.40;;
71646;SDS011;59706;45.634;11.704;2023-04-22T11:09:09;18.40;;;10.60;;
71646;SDS011;59706;45.634;11.704;2023-04-22T11:11:37;18.00;;;10.80;;
71646;SDS011;59706;45.634;11.704;2023-04-22T11:14:05;18.00;;;10.40;;
71646;SDS011;59706;45.634;11.704;2023-04-22T11:16:34;19.20;;;11.00;;
71646;SDS011;59706;45.634;11.704;2023-04-22T11:19:02;16.20;;;10.10;;
71646;SDS011;59706;45.634;11.704;2023-04-22T11:21:30;17.10;;;10.30;;
71646;SDS011;59706;45.634;11.704;2023-04-22T11:23:57;17.80;;;11.10;;
71646;SDS011;59706;45.634;11.704;2023-04-22T11:26:34;17.40;;;10.90;;
71646;SDS011;59706;45.634;11.704;2023-04-22T11:29:02;15.80;;;10.40;;
71646;SDS011;59706;45.634;11.704;2023-04-22T11:31:29;17.30;;;10.80;;
71646;SDS011;59706;45.634;11.704;2023-04-22T11:34:00;16.60;;;9.80;;
71646;SDS011;59706;45.634;11.704;2023-04-22T11:36:27;17.50;;;11.10;;
71646;SDS011;59706;45.634;11.704;2023-04-22T11:38:55;17.70;;;11.30;;
71646;SDS011;59706;45.634;11.704;2023-04-22T11:41:22;16.30;;;10.80;;
71646;SDS011;59706;45.634;11.704;2023-04-22T11:43:50;18.90;;;11.50;;
71646;SDS011;59706;45.634;11.704;2023-04-22T11:46:29;17.90;;;11.80;;
71646;SDS011;59706;45.634;11.704;2023-04-22T11:49:14;17.80;;;11.00;;
71646;SDS011;59706;45.634;11.704;2023-04-22T11:51:52;15.70;;;10.00;;
71646;SDS011;59706;45.634;11.704;2023-04-22T11:54:48;19.20;;;11.60;;
71646;SDS011;59706;45.634;11.704;2023-04-22T11:57:15;16.70;;;10.90;;
71646;SDS011;59706;45.634;11.704;2023-04-22T11:59:43;16.70;;;10.40;;
71646;SDS011;59706;45.634;11.704;2023-04-22T12:02:23;16.90;;;10.10;;
71646;SDS011;59706;45.634;11.704;2023-04-22T12:04:51;18.10;;;10.70;;
71646;SDS011;59706;45.634;11.704;2023-04-22T12:07:18;17.60;;;11.20;;
71646;SDS011;59706;45.634;11.704;2023-04-22T12:09:46;17.60;;;9.80;;
71646;SDS011;59706;45.634;11.704;2023-04-22T12:12:14;15.90;;;9.90;;
71646;SDS011;59706;45.634;11.704;2023-04-22T12:14:44;17.10;;;9.90;;
71646;SDS011;59706;45.634;11.704;2023-04-22T12:17:12;16.50;;;10.20;;
71646;SDS011;59706;45.634;11.704;2023-04-22T12:19:40;16.00;;;9.90;;
71646;SDS011;59706;45.634;11.704;2023-04-22T12:22:12;13.40;;;8.10;;
71646;SDS011;59706;45.634;11.704;2023-04-22T12:24:49;16.40;;;9.70;;
71646;SDS011;59706;45.634;11.704;2023-04-22T12:27:16;14.10;;;8.70;;
71646;SDS011;59706;45.634;11.704;2023-04-22T12:29:55;14.40;;;8.40;;
71646;SDS011;59706;45.634;11.704;2023-04-22T12:32:24;16.50;;;9.90;;
71646;SDS011;59706;45.634;11.704;2023-04-22T12:34:51;14.90;;;9.00;;
71646;SDS011;59706;45.634;11.704;2023-04-22T12:37:19;15.90;;;8.90;;
71646;SDS011;59706;45.634;11.704;2023-04-22T12:39:46;15.10;;;8.90;;
71646;SDS011;59706;45.634;11.704;2023-04-22T12:42:13;11.90;;;6.90;;
71646;SDS011;59706;45.634;11.704;2023-04-22T12:44:40;13.50;;;7.50;;
71646;SDS011;59706;45.634;11.704;2023-04-22T12:47:08;14.30;;;8.40;;
71646;SDS011;59706;45.634;11.704;2023-04-22T12:49:35;14.00;;;8.50;;
71646;SDS011;59706;45.634;11.704;2023-04-22T12:52:03;13.10;;;8.00;;
71646;SDS011;59706;45.634;11.704;2023-04-22T12:54:30;13.90;;;8.20;;
71646;SDS011;59706;45.634;11.704;2023-04-22T12:56:57;13.60;;;7.60;;
71646;SDS011;59706;45.634;11.704;2023-04-22T12:59:24;15.80;;;8.00;;
71646;SDS011;59706;45.634;11.704;2023-04-22T13:01:52;12.80;;;7.50;;
71646;SDS011;59706;45.634;11.704;2023-04-22T13:04:19;14.30;;;7.50;;
71646;SDS011;59706;45.634;11.704;2023-04-22T13:06:46;13.90;;;8.30;;
71646;SDS011;59706;45.634;11.704;2023-04-22T13:09:15;13.70;;;8.10;;
71646;SDS011;59706;45.634;11.704;2023-04-22T13:11:42;13.80;;;8.80;;
71646;SDS011;59706;45.634;11.704;2023-04-22T13:14:10;15.20;;;9.00;;
71646;SDS011;59706;45.634;11.704;2023-04-22T13:16:38;12.90;;;8.00;;
71646;SDS011;59706;45.634;11.704;2023-04-22T13:19:06;15.20;;;8.60;;
71646;SDS011;59706;45.634;11.704;2023-04-22T13:21:33;14.00;;;8.60;;
71646;SDS011;59706;45.634;11.704;2023-04-22T13:24:00;14.70;;;8.30;;
71646;SDS011;59706;45.634;11.704;2023-04-22T13:26:28;15.10;;;8.20;;
71646;SDS011;59706;45.634;11.704;2023-04-22T13:28:55;15.30;;;8.50;;
71646;SDS011;59706;45.634;11.704;2023-04-22T13:31:23;12.60;;;7.40;;
71646;SDS011;59706;45.634;11.704;2023-04-22T13:33:50;15.40;;;8.90;;
71646;SDS011;59706;45.634;11.704;2023-04-22T13:36:18;13.50;;;8.30;;
71646;SDS011;59706;45.634;11.704;2023-04-22T13:38:45;12.80;;;7.90;;
71646;SDS011;59706;45.634;11.704;2023-04-22T13:41:13;13.40;;;8.00;;
71646;SDS011;59706;45.634;11.704;2023-04-22T13:43:40;35.10;;;9.10;;
71646;SDS011;59706;45.634;11.704;2023-04-22T13:46:07;18.60;;;9.10;;
71646;SDS011;59706;45.634;11.704;2023-04-22T13:48:35;13.70;;;8.20;;
71646;SDS011;59706;45.634;11.704;2023-04-22T13:51:03;14.10;;;8.30;;
71646;SDS011;59706;45.634;11.704;2023-04-22T13:53:31;15.40;;;9.50;;
71646;SDS011;59706;45.634;11.704;2023-04-22T13:55:58;14.40;;;8.80;;
71646;SDS011;59706;45.634;11.704;2023-04-22T13:58:26;14.70;;;9.30;;
71646;SDS011;59706;45.634;11.704;2023-04-22T14:00:54;15.80;;;8.90;;
71646;SDS011;59706;45.634;11.704;2023-04-22T14:03:21;15.20;;;9.40;;
71646;SDS011;59706;45.634;11.704;2023-04-22T14:05:49;14.00;;;8.20;;
71646;SDS011;59706;45.634;11.704;2023-04-22T14:08:17;16.90;;;9.60;;
71646;SDS011;59706;45.634;11.704;2023-04-22T14:10:45;17.50;;;10.10;;
71646;SDS011;59706;45.634;11.704;2023-04-22T14:13:12;14.00;;;8.70;;
71646;SDS011;59706;45.634;11.704;2023-04-22T14:15:40;14.30;;;8.90;;
71646;SDS011;59706;45.634;11.704;2023-04-22T14:18:07;14.00;;;8.90;;
71646;SDS011;59706;45.634;11.704;2023-04-22T14:20:34;16.00;;;9.20;;
71646;SDS011;59706;45.634;11.704;2023-04-22T14:23:01;14.90;;;9.20;;
71646;SDS011;59706;45.634;11.704;2023-04-22T14:25:30;15.00;;;9.30;;
71646;SDS011;59706;45.634;11.704;2023-04-22T14:27:57;15.30;;;9.00;;
71646;SDS011;59706;45.634;11.704;2023-04-22T14:30:24;15.70;;;9.30;;
71646;SDS011;59706;45.634;11.704;2023-04-22T14:32:52;14.40;;;8.90;;